Terminal Aerodrome Forecast
Issued by NWS

Home | Current Version | Previous Version | Text Only | Print | Product List | Glossary On
Versions: 1 2 3 4 5 6 7 8 9 10 11 12 13 14 15 16 17 18
000
FTUS45 KREV 212323
TAFMMH
TAF
KMMH 212323Z 2200/2224 12008G18KT P6SM VCSH SCT030 BKN060
     FM220700 15008KT 1SM -SN BKN010 OVC020 WS020/24045KT=

USA.gov is the U.S. government's official web portal to all federal, state and local government web resources and services.